createdAt,value
2018-09-12T00:02:05.305Z,24.70
2018-09-12T00:04:33.933Z,24.60
2018-09-12T00:07:02.493Z,24.60
2018-09-12T00:09:31.032Z,24.50
2018-09-12T00:11:59.582Z,24.50
2018-09-12T00:14:28.107Z,24.40
2018-09-12T00:16:56.633Z,24.30
2018-09-12T00:19:25.140Z,24.30
2018-09-12T00:21:54.937Z,24.30
2018-09-12T00:24:23.536Z,24.30
2018-09-12T00:26:52.228Z,24.20
2018-09-12T00:29:20.828Z,24.20
2018-09-12T00:31:50.505Z,24.20
2018-09-12T00:34:18.973Z,24.20
2018-09-12T00:36:47.534Z,24.20
2018-09-12T00:39:16.078Z,24.20
2018-09-12T00:41:44.731Z,24.20
2018-09-12T00:44:13.315Z,24.20
2018-09-12T01:18:37.086Z,23.80
2018-09-12T01:21:07.267Z,23.70
2018-09-12T01:23:35.807Z,23.70
2018-09-12T01:26:04.327Z,23.60
2018-09-12T01:28:33.114Z,23.60
2018-09-12T01:31:01.651Z,23.60
2018-09-12T01:33:30.207Z,23.60
2018-09-12T01:35:58.821Z,23.50
2018-09-12T01:38:27.331Z,23.50
2018-09-12T01:40:55.932Z,23.50
2018-09-12T01:46:32.467Z,23.40
2018-09-12T01:49:00.944Z,23.40
2018-09-12T01:51:29.536Z,23.40
2018-09-12T01:53:58.049Z,23.30
2018-09-12T01:56:26.542Z,23.30
2018-09-12T01:58:55.114Z,23.20
2018-09-12T02:01:23.715Z,23.20
2018-09-12T02:03:52.377Z,23.20
2018-09-12T02:06:20.879Z,23.10
2018-09-12T02:08:49.433Z,23.00
2018-09-12T02:11:18.038Z,22.90
2018-09-12T02:13:46.627Z,22.80
2018-09-12T02:16:15.213Z,22.70
2018-09-12T02:18:43.790Z,22.60
2018-09-12T02:21:12.367Z,22.60
2018-09-12T02:23:40.949Z,22.60
2018-09-12T02:26:09.500Z,22.50
2018-09-12T02:28:38.021Z,22.50
2018-09-12T02:31:06.950Z,22.40
2018-09-12T02:33:35.600Z,22.40
2018-09-12T02:36:09.351Z,22.40
2018-09-12T02:38:37.948Z,22.40
2018-09-12T02:41:06.622Z,22.40
2018-09-12T02:43:35.199Z,22.40
2018-09-12T02:46:03.723Z,22.40
2018-09-12T02:48:32.247Z,22.40
2018-09-12T02:51:00.745Z,22.30
2018-09-12T02:53:29.302Z,22.30
2018-09-12T02:55:57.896Z,22.30
2018-09-12T02:58:26.417Z,22.30
2018-09-12T03:00:55.003Z,22.20
2018-09-12T03:03:23.502Z,22.10
2018-09-12T03:05:52.086Z,22.10
2018-09-12T03:08:20.707Z,22.10
2018-09-12T03:10:49.215Z,22.00
2018-09-12T03:13:17.701Z,22.00
2018-09-12T03:15:46.216Z,22.00
2018-09-12T03:18:14.703Z,22.00
2018-09-12T03:20:43.267Z,22.00
2018-09-12T03:23:11.720Z,22.00
2018-09-12T03:25:43.400Z,21.90
2018-09-12T03:57:40.722Z,21.70
2018-09-12T04:00:09.848Z,21.70
2018-09-12T04:02:38.390Z,21.60
2018-09-12T04:26:09.263Z,21.20
2018-09-12T04:28:37.824Z,21.20
2018-09-12T04:31:06.392Z,21.20
2018-09-12T04:33:35.566Z,21.20
2018-09-12T04:36:04.122Z,21.20
2018-09-12T04:38:33.804Z,21.20
2018-09-12T04:41:02.375Z,21.20
2018-09-12T04:43:30.926Z,21.30
2018-09-12T04:45:59.381Z,21.30
2018-09-12T04:48:27.934Z,21.30
2018-09-12T04:50:56.400Z,21.20
2018-09-12T04:53:25.047Z,21.20
2018-09-12T04:55:53.593Z,21.20
2018-09-12T04:58:22.195Z,21.10
2018-09-12T05:00:50.771Z,21.10
2018-09-12T05:03:19.291Z,21.20
2018-09-12T05:05:47.794Z,21.10
2018-09-12T05:08:16.281Z,21.00
2018-09-12T05:10:44.769Z,21.00
2018-09-12T05:13:13.328Z,20.90
2018-09-12T05:15:41.808Z,20.80
2018-09-12T05:18:10.626Z,20.80
2018-09-12T05:20:39.717Z,20.80
2018-09-12T05:23:08.593Z,20.70
2018-09-12T05:25:37.878Z,20.80
2018-09-12T05:28:06.591Z,20.80
2018-09-12T05:30:35.283Z,20.80
2018-09-12T05:33:03.789Z,20.80
2018-09-12T05:35:32.354Z,20.70
2018-09-12T05:38:00.839Z,20.70
2018-09-12T05:40:29.480Z,20.80
2018-09-12T05:42:59.103Z,21.00
2018-09-12T05:45:27.731Z,21.10
2018-09-12T05:47:56.321Z,21.20
2018-09-12T05:50:24.967Z,21.20
2018-09-12T05:52:53.633Z,21.30
2018-09-12T05:55:22.413Z,21.30
2018-09-12T05:57:50.972Z,21.30
2018-09-12T06:05:32.367Z,21.20
2018-09-12T06:08:00.914Z,21.20
2018-09-12T06:10:29.557Z,21.20
2018-09-12T06:12:58.092Z,21.10
2018-09-12T06:15:26.599Z,21.10
2018-09-12T06:17:55.161Z,21.00
2018-09-12T06:20:23.746Z,21.10
2018-09-12T06:22:52.281Z,21.10
2018-09-12T06:25:20.996Z,21.10
2018-09-12T06:27:50.263Z,21.20
2018-09-12T06:30:18.756Z,21.30
2018-09-12T06:32:47.330Z,21.30
2018-09-12T06:35:17.332Z,21.30
2018-09-12T06:37:46.058Z,21.40
2018-09-12T06:40:14.601Z,21.40
2018-09-12T06:42:43.169Z,21.40
2018-09-12T06:45:11.855Z,21.40
2018-09-12T06:47:40.412Z,21.50
2018-09-12T06:50:09.054Z,21.70
2018-09-12T06:52:38.067Z,21.90
2018-09-12T06:55:07.147Z,22.00
2018-09-12T06:57:35.748Z,22.00
2018-09-12T07:00:04.644Z,22.10
2018-09-12T07:02:33.141Z,22.20
2018-09-12T07:05:01.833Z,22.20
2018-09-12T07:07:30.429Z,22.30
2018-09-12T07:09:59.004Z,22.40
2018-09-12T07:12:27.546Z,22.50
2018-09-12T07:14:56.346Z,22.70
2018-09-12T07:22:00.136Z,22.90
2018-09-12T07:24:30.009Z,23.10
2018-09-12T07:26:58.505Z,23.20
2018-09-12T07:29:27.058Z,23.30
2018-09-12T07:31:55.647Z,23.50
2018-09-12T07:34:24.185Z,23.60
2018-09-12T07:36:52.796Z,23.80
2018-09-12T07:39:21.353Z,23.90
2018-09-12T07:41:49.895Z,24.00
2018-09-12T07:44:18.444Z,24.10
2018-09-12T07:46:46.996Z,24.20
2018-09-12T07:49:15.557Z,24.30
2018-09-12T07:51:44.103Z,24.40
2018-09-12T07:54:12.965Z,24.50
2018-09-12T07:56:41.564Z,24.50
2018-09-12T07:59:13.885Z,24.70
2018-09-12T08:01:42.431Z,24.80
2018-09-12T08:04:10.900Z,25.00
2018-09-12T08:06:39.413Z,25.10
2018-09-12T08:09:10.139Z,25.10
2018-09-12T08:11:41.273Z,25.10
2018-09-12T08:14:13.150Z,25.10
2018-09-12T08:16:44.074Z,25.20
2018-09-12T08:19:15.411Z,25.30
2018-09-12T08:21:47.381Z,25.40
2018-09-12T08:24:22.519Z,25.40
2018-09-12T08:26:54.999Z,25.50
2018-09-12T08:29:37.511Z,25.60
2018-09-12T08:32:38.304Z,25.70
2018-09-12T08:35:15.510Z,25.80
2018-09-12T09:00:50.861Z,26.30
2018-09-12T09:03:24.501Z,26.30
2018-09-12T09:33:24.977Z,26.80
2018-09-12T09:35:53.806Z,26.90
2018-09-12T09:38:22.417Z,27.00
2018-09-12T09:40:51.855Z,27.00
2018-09-12T09:43:20.357Z,26.80
2018-09-12T09:45:49.727Z,26.80
2018-09-12T09:48:18.437Z,26.80
2018-09-12T09:50:48.367Z,27.00
2018-09-12T09:53:16.852Z,27.30
2018-09-12T09:55:45.356Z,27.30
2018-09-12T09:58:14.135Z,27.30
2018-09-12T10:00:47.887Z,27.40
2018-09-12T10:03:21.772Z,27.50
2018-09-12T10:05:55.898Z,27.60
2018-09-12T10:08:34.488Z,27.50
2018-09-12T10:11:02.996Z,27.40
2018-09-12T10:13:31.488Z,27.50
2018-09-12T10:16:00.028Z,27.50
2018-09-12T10:18:28.541Z,27.50
2018-09-12T10:20:57.059Z,27.60
2018-09-12T10:23:25.674Z,27.60
2018-09-12T10:25:54.586Z,27.70
2018-09-12T10:28:23.070Z,28.00
2018-09-12T10:30:51.610Z,28.60
2018-09-12T10:33:20.181Z,28.70
2018-09-12T10:35:48.719Z,28.90
2018-09-12T10:38:17.701Z,29.00
2018-09-12T10:40:46.517Z,29.20
2018-09-12T10:43:15.025Z,29.20
2018-09-12T10:45:47.914Z,29.40
2018-09-12T10:48:16.617Z,29.40
2018-09-12T10:50:46.483Z,29.30
2018-09-12T10:53:16.683Z,29.20
2018-09-12T10:55:45.957Z,29.20
2018-09-12T10:58:15.004Z,29.10
2018-09-12T11:00:44.006Z,29.10
2018-09-12T11:03:13.327Z,29.00
2018-09-12T11:05:42.013Z,29.00
2018-09-12T11:08:11.026Z,28.90
2018-09-12T11:10:44.972Z,29.20
2018-09-12T11:13:15.473Z,29.40
2018-09-12T11:15:45.321Z,29.80
2018-09-12T11:18:15.736Z,29.80
2018-09-12T11:20:45.447Z,29.90
2018-09-12T11:23:14.057Z,30.30
2018-09-12T11:25:43.367Z,31.10
2018-09-12T11:28:12.023Z,32.10
2018-09-12T11:30:40.590Z,32.30
2018-09-12T11:33:09.749Z,32.10
2018-09-12T11:35:39.043Z,31.90
2018-09-12T11:38:08.311Z,31.60
2018-09-12T11:40:41.926Z,31.30
2018-09-12T11:43:11.010Z,31.10
2018-09-12T11:45:40.960Z,30.90
2018-09-12T11:48:09.886Z,30.50
2018-09-12T11:50:38.586Z,30.10
2018-09-12T11:53:09.183Z,29.90
2018-09-12T11:55:37.915Z,29.80
2018-09-12T11:58:06.597Z,29.70
2018-09-12T12:00:35.194Z,29.60
2018-09-12T12:03:03.719Z,29.50
2018-09-12T12:05:32.261Z,29.40
2018-09-12T12:08:00.776Z,29.40
2018-09-12T12:10:29.460Z,29.20
2018-09-12T12:12:58.055Z,29.00
2018-09-12T12:15:26.646Z,28.80
2018-09-12T12:17:55.241Z,28.70
2018-09-12T12:20:24.789Z,28.70
2018-09-12T12:22:53.288Z,28.70
2018-09-12T12:25:21.861Z,29.00
2018-09-12T12:27:50.561Z,29.30
2018-09-12T12:30:21.107Z,29.40
2018-09-12T12:32:49.880Z,29.50
2018-09-12T12:35:18.691Z,29.40
2018-09-12T12:37:47.231Z,29.30
2018-09-12T12:40:15.943Z,29.20
2018-09-12T12:42:48.689Z,29.00
2018-09-12T12:45:40.673Z,28.90
2018-09-12T12:48:35.497Z,28.90
2018-09-12T12:51:05.615Z,29.10
2018-09-12T12:53:34.832Z,29.30
2018-09-12T12:56:04.208Z,29.40
2018-09-12T12:58:32.777Z,29.60
2018-09-12T13:01:01.358Z,29.90
2018-09-12T13:03:29.920Z,30.00
2018-09-12T13:05:58.796Z,30.10
2018-09-12T13:08:27.491Z,30.00
2018-09-12T13:10:56.068Z,30.10
2018-09-12T13:13:24.768Z,30.20
2018-09-12T13:15:53.504Z,30.10
2018-09-12T13:18:22.093Z,30.00
2018-09-12T13:20:50.683Z,30.00
2018-09-12T13:23:19.366Z,30.00
2018-09-12T13:25:47.921Z,30.00
2018-09-12T13:28:16.504Z,29.90
2018-09-12T13:30:46.110Z,29.90
2018-09-12T13:33:15.452Z,29.70
2018-09-12T13:35:43.932Z,29.70
2018-09-12T13:38:12.752Z,29.60
2018-09-12T13:40:41.392Z,29.50
2018-09-12T13:43:10.022Z,29.40
2018-09-12T13:45:39.195Z,29.30
2018-09-12T13:48:07.834Z,29.40
2018-09-12T13:50:36.334Z,29.60
2018-09-12T13:53:04.887Z,29.70
2018-09-12T13:55:33.421Z,29.60
2018-09-12T13:58:01.919Z,29.60
2018-09-12T14:00:32.100Z,29.70
2018-09-12T14:03:02.120Z,29.80
2018-09-12T14:05:33.305Z,29.80
2018-09-12T14:08:05.324Z,29.80
2018-09-12T14:10:34.469Z,29.80
2018-09-12T14:13:03.801Z,29.60
2018-09-12T14:15:35.073Z,29.50
2018-09-12T14:23:34.466Z,29.30
2018-09-12T14:31:49.921Z,28.70
2018-09-12T14:34:18.627Z,28.80
2018-09-12T14:41:41.813Z,29.10
2018-09-12T14:44:10.380Z,29.10
2018-09-12T14:46:38.901Z,29.10
2018-09-12T14:49:12.137Z,28.80
2018-09-12T14:51:48.919Z,28.50
2018-09-12T14:54:18.402Z,28.10
2018-09-12T14:56:50.185Z,27.90
2018-09-12T14:59:20.208Z,27.70
2018-09-12T15:01:50.304Z,27.50
2018-09-12T15:04:21.321Z,27.40
2018-09-12T15:06:52.751Z,27.30
2018-09-12T15:12:07.749Z,27.20
2018-09-12T15:14:36.323Z,27.00
2018-09-12T15:17:04.848Z,26.80
2018-09-12T15:19:33.567Z,26.70
2018-09-12T15:22:02.164Z,26.70
2018-09-12T15:24:31.163Z,26.60
2018-09-12T15:26:59.899Z,26.50
2018-09-12T15:29:28.936Z,26.60
2018-09-12T15:31:57.523Z,26.60
2018-09-12T15:34:26.005Z,26.70
2018-09-12T15:36:55.698Z,26.50
2018-09-12T15:39:24.162Z,26.40
2018-09-12T15:41:58.692Z,26.30
2018-09-12T15:44:27.203Z,26.30
2018-09-12T15:46:55.713Z,26.30
2018-09-12T15:49:28.010Z,26.30
2018-09-12T15:52:00.557Z,26.30
2018-09-12T15:54:41.397Z,26.40
2018-09-12T15:57:13.958Z,26.30
2018-09-12T15:59:44.961Z,26.00
2018-09-12T16:02:22.372Z,25.80
2018-09-12T16:04:52.587Z,25.80
2018-09-12T16:07:30.667Z,25.60
2018-09-12T16:19:45.648Z,25.40
2018-09-12T16:22:19.651Z,25.50
2018-09-12T16:25:00.933Z,25.20
2018-09-12T16:27:32.599Z,25.20
2018-09-12T16:30:01.403Z,25.20
2018-09-12T16:32:30.281Z,25.10
2018-09-12T16:34:59.314Z,25.00
2018-09-12T16:37:27.988Z,24.90
2018-09-12T16:39:56.736Z,24.80
2018-09-12T16:42:25.261Z,24.80
2018-09-12T16:44:54.860Z,24.80
2018-09-12T16:48:16.733Z,24.80
2018-09-12T16:51:05.075Z,24.70
2018-09-12T17:18:42.162Z,24.00
2018-09-12T17:44:47.460Z,23.60
2018-09-12T17:47:15.968Z,23.60
2018-09-12T17:49:50.523Z,23.30
2018-09-12T17:52:52.338Z,23.20
2018-09-12T17:55:20.923Z,23.10
2018-09-12T17:57:52.529Z,23.10
2018-09-12T18:00:21.589Z,23.10
2018-09-12T18:02:50.473Z,23.10
2018-09-12T18:05:19.325Z,23.20
2018-09-12T18:07:49.328Z,23.20
2018-09-12T18:10:17.960Z,23.10
2018-09-12T18:12:53.596Z,23.00
2018-09-12T18:15:22.405Z,23.00
2018-09-12T18:17:50.904Z,23.00
2018-09-12T18:20:19.597Z,22.90
2018-09-12T18:22:48.112Z,23.00
2018-09-12T18:25:16.609Z,23.00
2018-09-12T18:27:45.175Z,23.00
2018-09-12T18:30:14.909Z,23.00
2018-09-12T18:32:43.465Z,23.00
2018-09-12T18:35:12.054Z,23.00
2018-09-12T18:40:18.301Z,23.00
2018-09-12T18:42:46.876Z,22.90
2018-09-12T18:45:15.644Z,22.80
2018-09-12T18:47:44.373Z,22.80
2018-09-12T18:50:15.253Z,22.80
2018-09-12T18:52:43.986Z,22.70
2018-09-12T18:55:17.399Z,22.70
2018-09-12T18:57:46.169Z,22.60
2018-09-12T19:00:14.786Z,22.60
2018-09-12T19:02:43.393Z,22.60
2018-09-12T19:05:12.982Z,22.60
2018-09-12T19:07:41.709Z,22.60
2018-09-12T19:10:10.196Z,22.60
2018-09-12T19:12:40.633Z,22.60
2018-09-12T19:15:09.137Z,22.60
2018-09-12T19:17:37.739Z,22.50
2018-09-12T19:20:07.328Z,22.60
2018-09-12T19:22:36.055Z,22.60
2018-09-12T19:25:05.182Z,22.70
2018-09-12T19:30:15.206Z,22.70
2018-09-12T19:32:46.468Z,22.60
2018-09-12T19:35:16.145Z,22.60
2018-09-12T19:37:44.707Z,22.60
2018-09-12T19:40:13.380Z,22.60
2018-09-12T19:42:43.179Z,22.60
2018-09-12T19:45:11.772Z,22.60
2018-09-12T19:47:40.444Z,22.60
2018-09-12T19:50:09.173Z,22.60
2018-09-12T19:52:40.080Z,22.60
2018-09-12T19:55:08.743Z,22.60
2018-09-12T19:57:39.227Z,22.60
2018-09-12T20:00:14.060Z,22.40
2018-09-12T20:02:43.650Z,22.50
2018-09-12T20:05:13.071Z,22.60
2018-09-12T20:07:41.648Z,22.70
2018-09-12T20:10:10.370Z,22.60
2018-09-12T20:12:39.033Z,22.60
2018-09-12T20:15:07.675Z,22.50
2018-09-12T20:17:37.305Z,22.60
2018-09-12T20:20:05.911Z,22.50
2018-09-12T20:22:34.654Z,22.60
2018-09-12T20:25:03.839Z,22.50
2018-09-12T20:27:35.248Z,22.40
2018-09-12T20:30:03.835Z,22.50
2018-09-12T20:32:32.426Z,22.50
2018-09-12T20:35:00.969Z,22.60
2018-09-12T20:37:29.441Z,22.50
2018-09-12T20:39:58.057Z,22.40
2018-09-12T20:42:32.589Z,22.50
2018-09-12T20:45:03.671Z,22.50
2018-09-12T20:47:32.284Z,22.60
2018-09-12T20:50:01.865Z,22.60
2018-09-12T20:52:30.422Z,22.60
2018-09-12T20:54:59.004Z,22.60
2018-09-12T20:57:27.595Z,22.60
2018-09-12T20:59:57.262Z,22.50
2018-09-12T21:02:25.827Z,22.40
2018-09-12T21:04:54.458Z,22.20
2018-09-12T21:07:22.970Z,22.20
2018-09-12T21:09:51.492Z,22.20
2018-09-12T21:12:20.038Z,22.30
2018-09-12T21:14:48.535Z,22.30
2018-09-12T21:17:17.046Z,22.40
2018-09-12T21:19:45.510Z,22.40
2018-09-12T21:22:15.002Z,22.20
2018-09-12T21:24:43.482Z,22.30
2018-09-12T21:27:12.148Z,22.20
2018-09-12T21:29:40.708Z,22.20
2018-09-12T21:32:09.219Z,22.10
2018-09-12T21:34:37.792Z,22.10
2018-09-12T21:37:06.427Z,22.10
2018-09-12T21:39:34.953Z,22.10
2018-09-12T21:42:06.332Z,21.90
2018-09-12T21:44:34.833Z,21.90
2018-09-12T21:47:03.344Z,22.00
2018-09-12T21:49:31.910Z,22.10
2018-09-12T21:52:00.461Z,22.10
2018-09-12T21:54:28.980Z,22.10
2018-09-12T21:56:57.476Z,22.20
2018-09-12T21:59:26.003Z,22.20
2018-09-12T22:01:54.540Z,22.10
2018-09-12T22:04:23.053Z,22.00
2018-09-12T22:06:51.620Z,22.00
2018-09-12T22:09:20.176Z,22.00
2018-09-12T22:11:48.676Z,22.10
2018-09-12T22:14:17.256Z,22.00
2018-09-12T22:16:45.836Z,22.00
2018-09-12T22:19:14.358Z,22.00
2018-09-12T22:21:54.461Z,22.00
2018-09-12T22:24:23.069Z,21.80
2018-09-12T22:26:51.592Z,21.80
2018-09-12T22:29:20.633Z,21.80
2018-09-12T22:31:49.422Z,21.70
2018-09-12T22:34:19.738Z,21.70
2018-09-12T22:36:49.429Z,21.60
2018-09-12T22:39:18.065Z,21.60
2018-09-12T22:41:46.669Z,21.70
2018-09-12T22:44:15.377Z,21.70
2018-09-12T22:46:44.171Z,21.70
2018-09-12T22:49:12.918Z,21.60
2018-09-12T22:51:42.186Z,21.70
2018-09-12T22:54:10.746Z,21.80
2018-09-12T22:56:39.400Z,21.90
2018-09-12T22:59:08.573Z,21.90
2018-09-12T23:01:38.324Z,21.80
2018-09-12T23:04:07.291Z,21.80
2018-09-12T23:06:35.817Z,21.80
2018-09-12T23:09:08.655Z,21.70
2018-09-12T23:11:37.318Z,21.70
2018-09-12T23:14:06.528Z,21.70
2018-09-12T23:16:36.331Z,21.70
2018-09-12T23:19:05.402Z,21.70
2018-09-12T23:21:34.121Z,21.60
2018-09-12T23:24:03.335Z,21.50
2018-09-12T23:29:17.711Z,21.60
2018-09-12T23:31:46.366Z,21.60
2018-09-12T23:34:15.650Z,21.60
2018-09-12T23:36:44.553Z,21.50
2018-09-12T23:39:14.177Z,21.50
2018-09-12T23:41:43.289Z,21.50
2018-09-12T23:44:12.242Z,21.60
2018-09-12T23:46:42.467Z,21.60
2018-09-12T23:49:11.463Z,21.50
2018-09-12T23:51:40.134Z,21.40
2018-09-12T23:54:08.701Z,21.40
2018-09-12T23:56:37.391Z,21.40
2018-09-12T23:59:06.549Z,21.40
